logo
Search for airport 
image banner adimage banner adimage banner ad
image banner ad

LOGW - Weiz/Unterfladnitz

Located in District Weiz, Austria

ICAO - LOGW, IATA -

Data provided by Airmate  

General information

Coordinates: N47°10'14" E15°39'51"
Elevation is 1296 feet MSL.
 
View others Airports in Styria

Operational data

Special qualification required
Current time UTC:
Current local time:
Weather at : LOWG - Graz ( 26 km )
METAR: LOWG 150920Z AUTO 02003KT 340V060 9999 NCD 22/12 Q1010 NOSIG
TAF: TAF LOWG 150515Z 1506/1606 VRB04KT CAVOK TX24/1512Z TN11/1606Z BECMG 1512/1514 20010KT FEW060CB PROB30 TEMPO 1516/1518 01015G30KT 4000 +TSRA TEMPO 1518/1521 02015G30KT 4000 +TSRA TEMPO 1521/1604 02008KT SHRA TEMPO 1604/1606 35015KT RA
View NOTAMs / SUP AIP / TFR affecting this airport [VIEW]
Communications frequencies: [VIEW]

Runways:

RWY identifierQFULength (ft)Width (ft)SurfaceLDA (ft)
18144498GRASS
36144498GRASS

Airport contact information

Address: District Weiz Austria

Other aviation service providers

Aviation club (not for profit)

Askö Flugsportclub Wiez

Askö Flugsportclub Wiez

Satellite view of LOGW